Time;durP1;ratioP1;P1;durP2;ratioP2;P2;SDS_P1;SDS_P2;PMS_P1;PMS_P2;Temp;Humidity;BMP_temperature;BMP_pressure;BME280_temperature;BME280_humidity;BME280_pressure;Samples;Min_cycle;Max_cycle;Signal;HPM_P1;HPM_P2
2020/12/01 00:01:52;;;;;;;16.37;8.27;;;7.00;95.30;;;;;;5024669;28;20046;-73
2020/12/01 00:04:19;;;;;;;13.57;7.77;;;6.90;95.20;;;;;;5026300;28;20029;-73
2020/12/01 00:06:46;;;;;;;13.87;7.97;;;7.00;95.30;;;;;;5016040;28;20034;-73
2020/12/01 00:09:14;;;;;;;12.10;6.33;;;7.00;95.30;;;;;;5027952;28;20053;-73
2020/12/01 00:11:40;;;;;;;13.77;7.03;;;7.00;95.30;;;;;;5023103;28;20062;-73
2020/12/01 00:14:07;;;;;;;12.03;5.63;;;7.00;95.30;;;;;;5012845;28;20073;-72
2020/12/01 00:16:33;;;;;;;8.63;4.17;;;7.00;95.30;;;;;;5018589;28;20116;-72
2020/12/01 00:19:00;;;;;;;9.13;4.67;;;7.00;95.30;;;;;;5007111;28;20053;-74
2020/12/01 00:21:26;;;;;;;10.30;4.27;;;7.00;95.30;;;;;;5013680;28;20037;-73
2020/12/01 00:23:53;;;;;;;7.73;4.40;;;7.00;95.30;;;;;;5039687;28;20053;-72
2020/12/01 00:26:20;;;;;;;7.27;3.50;;;7.00;95.30;;;;;;5033267;28;20516;-72
2020/12/01 00:28:48;;;;;;;7.07;3.47;;;7.00;95.30;;;;;;5030342;28;20048;-72
2020/12/01 00:31:16;;;;;;;7.47;3.67;;;7.00;95.30;;;;;;5009983;28;20567;-72
2020/12/01 00:33:42;;;;;;;5.93;3.50;;;7.00;95.30;;;;;;5038644;28;20037;-79
2020/12/01 00:36:10;;;;;;;5.27;3.13;;;7.00;95.30;;;;;;5012061;28;20073;-79
2020/12/01 00:38:36;;;;;;;6.43;3.40;;;7.00;95.40;;;;;;5032692;28;20037;-78
2020/12/01 00:41:03;;;;;;;5.37;2.60;;;7.00;95.40;;;;;;5052533;28;20056;-78
2020/12/01 00:43:29;;;;;;;5.77;2.90;;;7.00;95.40;;;;;;5052837;28;20464;-78
2020/12/01 00:45:56;;;;;;;6.37;3.40;;;7.00;95.40;;;;;;5012762;28;20461;-79
2020/12/01 00:48:23;;;;;;;5.53;2.77;;;7.00;95.40;;;;;;5049595;28;20133;-78
2020/12/01 00:50:50;;;;;;;5.67;2.97;;;7.00;95.40;;;;;;5045188;28;20067;-79
2020/12/01 00:53:16;;;;;;;6.53;3.40;;;7.00;95.40;;;;;;5031173;28;20041;-79
2020/12/01 00:55:44;;;;;;;6.60;2.50;;;7.00;95.40;;;;;;5023595;28;20135;-78
2020/12/01 00:58:10;;;;;;;7.30;3.63;;;7.00;95.40;;;;;;5055142;28;20056;-79
2020/12/01 01:00:56;;;;;;;10.60;4.83;;;7.10;95.40;;;;;;5054842;28;20408;-80
2020/12/01 01:03:24;;;;;;;11.53;5.57;;;7.10;95.40;;;;;;5026646;28;20049;-80
2020/12/01 01:05:51;;;;;;;14.20;6.97;;;7.10;95.30;;;;;;5052860;28;20103;-80
2020/12/01 01:08:17;;;;;;;11.60;5.77;;;7.10;95.30;;;;;;5047452;28;20037;-79
2020/12/01 01:10:47;;;;;;;14.73;7.73;;;7.20;95.60;;;;;;5047821;28;20481;-81
2020/12/01 01:13:14;;;;;;;14.47;7.63;;;7.20;95.30;;;;;;5033761;28;20104;-82
2020/12/01 01:15:41;;;;;;;13.80;7.97;;;7.20;95.30;;;;;;5027002;28;20050;-81
2020/12/01 01:18:08;;;;;;;16.37;8.23;;;7.20;95.30;;;;;;5015461;28;20080;-80
2020/12/01 01:20:34;;;;;;;17.87;10.37;;;7.20;95.30;;;;;;5022062;28;20074;-79
2020/12/01 01:23:01;;;;;;;14.97;7.83;;;7.30;95.40;;;;;;5036174;28;20045;-79
2020/12/01 01:25:27;;;;;;;11.50;6.07;;;7.40;95.40;;;;;;5054934;28;20041;-79
2020/12/01 01:27:54;;;;;;;11.40;5.80;;;7.40;95.30;;;;;;5038351;28;20045;-79
2020/12/01 01:30:24;;;;;;;8.03;4.33;;;7.40;95.40;;;;;;5045743;28;20037;-79
2020/12/01 01:32:51;;;;;;;9.67;4.63;;;7.40;95.30;;;;;;5034808;28;20050;-79
2020/12/01 01:35:18;;;;;;;8.47;4.53;;;7.40;95.30;;;;;;5034888;28;20550;-79
2020/12/01 01:37:45;;;;;;;8.33;4.70;;;7.50;95.60;;;;;;5035811;28;20057;-79
2020/12/01 01:40:24;;;;;;;7.57;4.37;;;7.50;95.30;;;;;;5031077;28;20041;-80
2020/12/01 01:42:51;;;;;;;7.17;3.57;;;7.50;95.30;;;;;;5035364;28;20041;-79
2020/12/01 01:45:40;;;;;;;7.90;3.60;;;7.50;95.30;;;;;;5037334;28;20071;-79
2020/12/01 01:48:34;;;;;;;10.80;4.40;;;7.50;95.30;;;;;;5048984;28;20068;-80
2020/12/01 01:51:00;;;;;;;;;;;7.50;95.40;;;;;;5024411;28;20049;-79
2020/12/01 01:53:30;;;;;;;10.87;4.70;;;7.40;95.40;;;;;;5014546;28;20274;-80
2020/12/01 01:56:01;;;;;;;13.60;5.70;;;7.40;95.40;;;;;;5053739;28;20048;-80
2020/12/01 01:58:36;;;;;;;11.00;4.87;;;7.40;95.40;;;;;;5041076;28;20049;-79
2020/12/01 02:01:12;;;;;;;9.27;4.07;;;7.40;95.40;;;;;;5021011;28;20045;-79
2020/12/01 02:03:45;;;;;;;13.20;4.13;;;7.40;95.40;;;;;;5049129;28;20060;-79
2020/12/01 02:06:20;;;;;;;8.70;4.30;;;7.40;95.50;;;;;;5032522;28;20049;-79
2020/12/01 02:08:56;;;;;;;6.60;2.80;;;7.30;95.40;;;;;;5025216;28;20118;-79
2020/12/01 02:11:23;;;;;;;9.50;3.17;;;7.30;95.50;;;;;;5037250;28;20042;-79
2020/12/01 02:14:10;;;;;;;8.03;2.67;;;7.30;95.50;;;;;;5035552;28;20045;-79
2020/12/01 02:16:44;;;;;;;5.97;2.03;;;7.30;95.50;;;;;;5031103;28;20041;-79
2020/12/01 02:19:15;;;;;;;10.63;2.47;;;7.30;95.50;;;;;;5039687;28;20045;-79
2020/12/01 02:21:43;;;;;;;6.17;2.03;;;7.30;95.50;;;;;;5050812;28;20389;-79
2020/12/01 02:24:16;;;;;;;4.33;1.10;;;7.20;95.50;;;;;;5051986;28;20049;-79
2020/12/01 02:26:46;;;;;;;3.77;1.13;;;7.20;95.50;;;;;;5049417;28;20132;-79
2020/12/01 02:29:16;;;;;;;4.70;1.03;;;7.20;95.50;;;;;;5033685;28;20037;-79
2020/12/01 02:31:43;;;;;;;5.93;0.73;;;7.10;95.50;;;;;;5033978;28;20124;-79
2020/12/01 02:34:12;;;;;;;6.07;0.80;;;7.10;95.60;;;;;;5054925;28;20041;-79
2020/12/01 02:36:39;;;;;;;5.57;1.57;;;7.10;95.60;;;;;;5040620;28;20053;-80
2020/12/01 02:39:09;;;;;;;2.50;0.70;;;7.00;95.60;;;;;;5037329;28;20041;-80
2020/12/01 02:41:35;;;;;;;4.33;0.70;;;7.00;95.60;;;;;;5047756;28;20049;-79
2020/12/01 02:44:04;;;;;;;4.33;0.70;;;7.00;95.60;;;;;;5053481;28;20519;-79
2020/12/01 02:46:37;;;;;;;1.53;0.40;;;7.00;95.60;;;;;;5040236;28;20543;-79
2020/12/01 02:49:08;;;;;;;2.93;0.40;;;6.90;95.60;;;;;;5020576;28;20220;-79
2020/12/01 02:51:35;;;;;;;4.17;1.10;;;6.90;95.60;;;;;;5041374;28;20064;-79
2020/12/01 02:54:02;;;;;;;3.93;0.63;;;6.90;95.70;;;;;;5045250;28;20069;-80
2020/12/01 02:56:29;;;;;;;3.03;0.60;;;6.80;95.70;;;;;;5044766;28;20052;-79
2020/12/01 02:58:55;;;;;;;2.27;0.40;;;6.80;95.60;;;;;;5018160;28;20095;-79
2020/12/01 03:01:23;;;;;;;2.00;0.30;;;6.80;95.70;;;;;;5046704;28;20052;-79
2020/12/01 03:03:49;;;;;;;3.43;0.30;;;6.70;95.60;;;;;;5029424;28;20413;-80
2020/12/01 03:06:19;;;;;;;2.70;0.50;;;6.70;95.70;;;;;;5048298;28;20120;-80
2020/12/01 03:08:46;;;;;;;1.33;0.30;;;6.70;95.70;;;;;;5040751;28;20043;-80
2020/12/01 03:11:14;;;;;;;1.70;0.20;;;6.60;95.70;;;;;;5053710;28;20072;-79
2020/12/01 03:13:41;;;;;;;5.20;0.50;;;6.60;95.70;;;;;;5053806;28;20075;-79
2020/12/01 03:16:09;;;;;;;1.60;0.30;;;6.50;95.70;;;;;;5035173;28;20482;-79
2020/12/01 03:18:44;;;;;;;2.30;0.40;;;6.50;95.80;;;;;;5027186;28;20394;-79
2020/12/01 03:21:14;;;;;;;4.60;0.70;;;6.50;95.80;;;;;;5023745;28;20485;-79
2020/12/01 03:23:41;;;;;;;3.37;0.50;;;6.50;95.80;;;;;;5034704;28;20048;-79
2020/12/01 03:26:11;;;;;;;3.43;0.60;;;6.50;95.80;;;;;;5042930;28;20042;-79
2020/12/01 03:28:38;;;;;;;7.23;0.70;;;6.50;96.10;;;;;;5047483;28;20389;-79
2020/12/01 03:31:05;;;;;;;4.30;0.50;;;6.50;95.90;;;;;;5025465;28;20082;-79
2020/12/01 03:33:31;;;;;;;3.80;0.40;;;6.50;95.90;;;;;;5034648;28;20041;-79
2020/12/01 03:35:58;;;;;;;4.20;0.60;;;6.50;95.80;;;;;;5040565;28;20136;-79
2020/12/01 03:38:24;;;;;;;2.33;0.40;;;6.50;95.80;;;;;;5052317;28;20114;-79
2020/12/01 03:40:51;;;;;;;3.30;0.40;;;6.50;95.70;;;;;;5036767;28;20065;-79
2020/12/01 03:43:18;;;;;;;3.30;0.60;;;6.50;95.80;;;;;;5043614;28;20060;-78
2020/12/01 03:45:45;;;;;;;4.87;0.40;;;6.50;95.80;;;;;;5049632;28;20029;-79
2020/12/01 03:48:11;;;;;;;3.37;0.50;;;6.50;95.80;;;;;;5035900;28;20168;-73
2020/12/01 03:50:38;;;;;;;3.97;0.50;;;6.50;95.80;;;;;;5029739;28;20034;-73
2020/12/01 03:53:05;;;;;;;6.80;0.50;;;6.40;96.10;;;;;;5006655;28;20155;-73
2020/12/01 03:55:31;;;;;;;4.93;0.87;;;6.40;95.80;;;;;;5009682;28;20108;-73
2020/12/01 03:57:58;;;;;;;6.70;1.03;;;6.50;96.00;;;;;;5032025;28;20042;-73
2020/12/01 04:00:28;;;;;;;5.27;0.50;;;6.50;96.00;;;;;;5022862;28;20050;-73
2020/12/01 04:02:55;;;;;;;3.17;0.50;;;6.50;95.90;;;;;;5036201;28;20389;-73
2020/12/01 04:05:24;;;;;;;6.50;1.00;;;6.50;95.90;;;;;;5033626;28;20134;-73
2020/12/01 04:07:53;;;;;;;2.40;0.50;;;6.60;96.00;;;;;;5045297;28;20060;-73
2020/12/01 04:10:22;;;;;;;2.30;0.30;;;6.70;96.00;;;;;;5018866;28;20066;-73
2020/12/01 04:12:50;;;;;;;2.20;0.30;;;6.70;95.90;;;;;;5043039;28;20405;-73
2020/12/01 04:15:18;;;;;;;3.83;0.60;;;6.80;95.90;;;;;;5032719;28;20107;-73
2020/12/01 04:17:45;;;;;;;6.13;0.50;;;6.80;95.90;;;;;;5019625;28;20367;-73
2020/12/01 04:20:13;;;;;;;3.97;0.23;;;6.80;95.90;;;;;;5030786;28;20042;-73
2020/12/01 04:22:39;;;;;;;1.63;0.30;;;6.90;95.80;;;;;;5036868;28;20053;-73
2020/12/01 04:25:08;;;;;;;2.00;0.20;;;6.90;95.80;;;;;;5042724;28;20040;-74
2020/12/01 04:27:36;;;;;;;2.53;0.30;;;7.00;95.80;;;;;;5026365;28;20464;-73
2020/12/01 04:30:06;;;;;;;0.90;0.20;;;7.00;95.80;;;;;;5046356;28;20025;-73
2020/12/01 04:32:33;;;;;;;1.40;0.13;;;7.00;95.80;;;;;;5028172;28;20037;-73
2020/12/01 04:34:59;;;;;;;1.43;0.10;;;7.00;95.70;;;;;;4991946;28;20069;-73
2020/12/01 04:37:26;;;;;;;1.70;0.53;;;7.00;95.70;;;;;;5049086;28;20400;-73
2020/12/01 04:39:53;;;;;;;1.67;0.20;;;7.00;95.70;;;;;;5047365;28;20107;-73
2020/12/01 04:42:22;;;;;;;1.60;0.20;;;7.00;95.80;;;;;;5007688;28;20049;-73
2020/12/01 04:44:56;;;;;;;2.17;0.33;;;7.00;96.00;;;;;;5016506;28;20057;-73
2020/12/01 04:48:00;;;;;;;2.23;0.60;;;7.00;95.80;;;;;;5029783;28;20047;-73
2020/12/01 04:50:40;;;;;;;0.83;0.27;;;7.00;95.70;;;;;;5042822;28;20037;-73
2020/12/01 04:53:32;;;;;;;1.03;0.30;;;7.00;95.70;;;;;;5052976;28;20071;-73
2020/12/01 04:55:59;;;;;;;2.63;0.30;;;7.00;95.70;;;;;;5029410;28;20404;-73
2020/12/01 04:58:50;;;;;;;2.23;0.50;;;7.00;95.70;;;;;;5045824;28;20072;-73
2020/12/01 05:01:57;;;;;;;3.20;0.47;;;7.00;95.70;;;;;;5021148;28;20131;-73
2020/12/01 05:04:48;;;;;;;1.17;0.20;;;7.00;95.70;;;;;;5010615;28;20561;-73
2020/12/01 05:07:37;;;;;;;2.43;0.47;;;7.00;95.70;;;;;;5019678;28;20050;-73
2020/12/01 05:10:09;;;;;;;2.07;0.90;;;7.00;95.70;;;;;;5020704;28;20060;-79
2020/12/01 05:12:39;;;;;;;3.13;0.43;;;7.00;95.70;;;;;;5027593;28;20049;-79
2020/12/01 05:15:14;;;;;;;2.33;0.40;;;7.00;95.70;;;;;;5017610;28;20436;-79
2020/12/01 05:18:06;;;;;;;5.73;0.70;;;7.00;95.70;;;;;;5014341;28;20038;-79
2020/12/01 05:20:42;;;;;;;4.87;0.60;;;7.00;95.70;;;;;;5021485;28;20048;-79
2020/12/01 05:23:10;;;;;;;2.53;0.37;;;7.00;95.70;;;;;;5047016;28;20064;-79
2020/12/01 05:25:36;;;;;;;2.80;0.50;;;7.00;95.70;;;;;;5034189;28;20041;-79
2020/12/01 05:28:12;;;;;;;3.77;0.40;;;7.00;95.70;;;;;;5051954;28;20477;-79
2020/12/01 05:30:40;;;;;;;5.23;0.73;;;7.10;95.70;;;;;;5052460;28;20045;-79
2020/12/01 05:33:25;;;;;;;3.73;0.47;;;7.10;95.70;;;;;;5051806;28;20059;-79
2020/12/01 05:36:23;;;;;;;4.03;0.60;;;7.10;95.70;;;;;;5034723;28;20121;-79
2020/12/01 05:39:20;;;;;;;3.85;0.70;;;7.00;95.70;;;;;;5039531;28;20060;-79
2020/12/01 05:42:03;;;;;;;2.73;0.30;;;7.10;95.70;;;;;;5053876;28;20045;-79
2020/12/01 05:44:32;;;;;;;2.47;0.50;;;7.10;96.00;;;;;;5040528;28;20404;-79
2020/12/01 05:47:16;;;;;;;2.17;0.40;;;7.10;95.70;;;;;;5037235;28;20549;-79
2020/12/01 05:49:43;;;;;;;0.97;0.37;;;7.10;95.70;;;;;;5054287;28;20107;-79
2020/12/01 05:52:21;;;;;;;2.60;0.50;;;7.10;95.70;;;;;;5023663;28;20037;-73
2020/12/01 05:55:09;;;;;;;3.47;0.80;;;7.10;95.70;;;;;;5046122;28;20068;-73
2020/12/01 05:57:36;;;;;;;3.23;0.50;;;7.10;95.70;;;;;;5043312;28;20049;-73
2020/12/01 06:00:12;;;;;;;3.40;0.50;;;7.10;95.70;;;;;;5011143;28;20042;-73
2020/12/01 06:03:07;;;;;;;3.63;0.60;;;7.10;95.70;;;;;;5031592;28;20045;-73
2020/12/01 06:05:38;;;;;;;2.60;0.70;;;7.10;95.70;;;;;;5034481;28;20045;-74
2020/12/01 06:08:20;;;;;;;3.23;0.60;;;7.10;95.70;;;;;;5036184;28;20064;-73
2020/12/01 06:10:55;;;;;;;5.13;1.00;;;7.10;95.70;;;;;;5018459;28;20382;-73
2020/12/01 06:13:31;;;;;;;3.17;1.10;;;7.10;95.70;;;;;;5037707;28;20041;-73
2020/12/01 06:16:08;;;;;;;4.00;0.90;;;7.20;95.70;;;;;;5036126;28;20369;-73
2020/12/01 06:18:59;;;;;;;4.13;0.80;;;7.20;95.70;;;;;;5027812;28;20033;-73
2020/12/01 06:21:48;;;;;;;3.63;1.00;;;7.10;95.70;;;;;;5022530;28;20050;-73
2020/12/01 06:24:33;;;;;;;6.53;2.10;;;7.20;95.70;;;;;;5016360;28;20044;-73
2020/12/01 06:27:22;;;;;;;3.93;1.03;;;7.20;95.70;;;;;;5028548;28;20431;-73
2020/12/01 06:30:18;;;;;;;4.50;1.10;;;7.20;95.70;;;;;;5027148;28;20107;-79
2020/12/01 06:33:11;;;;;;;2.67;0.70;;;7.20;95.70;;;;;;5006180;28;20045;-73
2020/12/01 06:36:23;;;;;;;2.70;1.37;;;7.20;95.70;;;;;;5028817;28;20045;-73
2020/12/01 06:39:28;;;;;;;5.10;1.23;;;7.20;95.70;;;;;;5052647;28;20057;-73
2020/12/01 06:42:13;;;;;;;3.70;1.30;;;7.20;95.70;;;;;;5045857;28;20045;-73
2020/12/01 06:44:43;;;;;;;3.97;1.40;;;7.20;95.70;;;;;;5036091;28;20063;-73
2020/12/01 06:47:10;;;;;;;4.00;1.70;;;7.20;95.70;;;;;;5024873;28;20498;-73
2020/12/01 06:49:38;;;;;;;4.77;2.90;;;7.20;95.70;;;;;;5007574;28;20119;-74
2020/12/01 06:52:14;;;;;;;4.07;1.67;;;7.20;95.70;;;;;;5048915;28;20396;-73
2020/12/01 06:54:51;;;;;;;5.27;1.33;;;7.30;95.70;;;;;;5024145;28;20120;-73
2020/12/01 06:57:36;;;;;;;5.70;1.70;;;7.30;95.70;;;;;;5033876;28;20040;-73
2020/12/01 07:00:08;;;;;;;4.00;2.07;;;7.30;95.70;;;;;;5025358;28;20050;-73
2020/12/01 07:02:39;;;;;;;3.00;1.57;;;7.30;95.70;;;;;;5024386;28;20056;-73
2020/12/01 07:05:09;;;;;;;3.77;1.53;;;7.40;95.70;;;;;;5033475;28;20095;-73
2020/12/01 07:07:42;;;;;;;4.70;2.00;;;7.40;95.70;;;;;;5027420;28;20132;-73
2020/12/01 07:10:32;;;;;;;;;;;7.50;95.70;;;;;;5024856;28;20041;-80
2020/12/01 07:13:40;;;;;;;5.73;2.07;;;7.50;95.70;;;;;;5028145;28;19948;-78
2020/12/01 07:16:23;;;;;;;7.37;2.10;;;7.50;95.70;;;;;;5036243;28;20107;-79
2020/12/01 07:18:55;;;;;;;4.07;1.58;;;7.50;95.70;;;;;;5023245;28;20069;-78
2020/12/01 07:21:30;;;;;;;4.05;1.30;;;7.60;95.70;;;;;;5030996;28;20045;-79
2020/12/01 07:23:59;;;;;;;3.33;1.17;;;7.70;95.70;;;;;;5037724;28;20429;-79
2020/12/01 07:26:35;;;;;;;5.47;1.30;;;7.70;95.70;;;;;;5046128;28;20037;-79
2020/12/01 07:29:19;;;;;;;3.30;1.17;;;7.70;95.70;;;;;;5041034;28;20094;-79
2020/12/01 07:31:45;;;;;;;3.23;1.30;;;7.80;95.70;;;;;;5037953;28;20071;-79
2020/12/01 07:34:28;;;;;;;4.13;1.53;;;7.80;95.60;;;;;;5052165;28;20448;-78
2020/12/01 07:37:15;;;;;;;3.10;1.42;;;7.80;95.60;;;;;;5036787;28;20045;-79
2020/12/01 07:39:59;;;;;;;3.13;1.50;;;7.90;95.60;;;;;;5052715;28;20041;-78
2020/12/01 07:42:31;;;;;;;3.30;1.17;;;7.90;95.70;;;;;;5052280;28;20045;-79
2020/12/01 07:44:58;;;;;;;3.67;1.30;;;7.90;95.60;;;;;;5046674;28;20102;-79
2020/12/01 07:47:27;;;;;;;3.10;1.43;;;8.00;95.60;;;;;;5045846;28;20033;-79
2020/12/01 07:49:57;;;;;;;3.23;1.17;;;8.00;95.90;;;;;;5044407;28;20049;-79
2020/12/01 07:52:39;;;;;;;3.43;1.40;;;8.10;95.60;;;;;;5045875;28;20040;-80
2020/12/01 07:55:29;;;;;;;5.43;1.83;;;8.10;95.70;;;;;;5041089;28;20099;-79
2020/12/01 07:58:00;;;;;;;2.57;1.50;;;8.10;95.60;;;;;;5031326;28;20051;-73
2020/12/01 08:00:27;;;;;;;3.50;1.20;;;8.10;95.60;;;;;;5003091;28;20137;-73
2020/12/01 08:03:02;;;;;;;3.20;1.00;;;8.20;95.60;;;;;;5020246;28;20117;-73
2020/12/01 08:05:29;;;;;;;1.90;0.80;;;8.20;95.60;;;;;;5046676;28;20041;-73
2020/12/01 08:07:56;;;;;;;3.17;0.70;;;8.20;95.60;;;;;;5031579;28;20069;-73
2020/12/01 08:10:25;;;;;;;2.63;1.03;;;8.20;95.60;;;;;;5022694;28;20076;-73
2020/12/01 08:12:58;;;;;;;3.57;1.10;;;8.30;95.70;;;;;;5023225;28;20034;-73
2020/12/01 08:15:26;;;;;;;4.03;0.97;;;8.30;95.60;;;;;;5025912;28;20033;-73
2020/12/01 08:17:53;;;;;;;2.67;0.67;;;8.30;95.60;;;;;;5025153;28;20046;-73
2020/12/01 08:20:24;;;;;;;3.73;0.50;;;8.40;95.70;;;;;;5031430;28;20065;-73
2020/12/01 08:23:01;;;;;;;5.40;0.60;;;8.40;95.60;;;;;;5017389;28;20064;-73
2020/12/01 08:25:51;;;;;;;4.50;0.57;;;8.40;95.60;;;;;;5022669;28;20046;-73
2020/12/01 08:28:26;;;;;;;6.13;0.70;;;8.40;95.60;;;;;;5022363;28;20095;-73
2020/12/01 08:31:00;;;;;;;2.90;0.60;;;8.40;95.70;;;;;;5029716;28;20515;-73
2020/12/01 08:33:49;;;;;;;8.37;1.10;;;8.40;95.70;;;;;;5018026;28;20034;-73
2020/12/01 08:36:35;;;;;;;12.50;1.40;;;8.40;95.60;;;;;;5018475;28;20070;-73
2020/12/01 08:39:39;;;;;;;7.47;0.87;;;8.40;95.60;;;;;;5020995;28;20042;-73
2020/12/01 08:42:25;;;;;;;11.73;1.20;;;8.40;95.60;;;;;;5019762;28;20052;-73
2020/12/01 08:45:28;;;;;;;15.03;2.17;;;8.40;95.70;;;;;;5039020;28;20037;-79
2020/12/01 08:48:01;;;;;;;9.40;1.10;;;8.40;95.70;;;;;;5023764;28;20382;-80
2020/12/01 08:50:33;;;;;;;9.57;1.57;;;8.40;95.70;;;;;;5029015;28;20455;-79
2020/12/01 08:53:11;;;;;;;9.40;1.02;;;8.40;95.70;;;;;;5021004;28;20034;-75
2020/12/01 08:55:49;;;;;;;8.13;1.43;;;8.40;95.70;;;;;;5024318;28;20038;-74
2020/12/01 08:58:27;;;;;;;7.87;1.30;;;8.40;95.70;;;;;;5025297;28;20486;-72
2020/12/01 09:00:57;;;;;;;8.90;1.23;;;8.40;95.70;;;;;;5018761;28;20045;-73
2020/12/01 09:03:24;;;;;;;10.90;2.00;;;8.40;95.70;;;;;;5018322;28;20046;-73
2020/12/01 09:05:51;;;;;;;10.67;1.07;;;8.40;95.70;;;;;;5024048;28;20049;-78
2020/12/01 09:08:40;;;;;;;13.10;1.27;;;8.40;95.70;;;;;;5037013;28;20493;-72
2020/12/01 09:14:19;;;;;;;10.40;1.20;;;8.50;95.70;;;;;;5044853;28;20072;-78
2020/12/01 09:17:07;;;;;;;9.07;1.33;;;8.40;95.70;;;;;;5033778;28;20041;-78
2020/12/01 09:22:12;;;;;;;10.83;1.33;;;8.50;95.70;;;;;;5043617;28;20051;-78
2020/12/01 09:24:41;;;;;;;7.67;0.83;;;8.40;95.70;;;;;;5055457;28;20041;-78
2020/12/01 09:27:15;;;;;;;5.27;1.53;;;8.50;95.70;;;;;;5043338;28;20441;-78
2020/12/01 09:29:52;;;;;;;9.43;1.50;;;8.50;95.70;;;;;;5036662;28;20086;-78
2020/12/01 09:32:22;;;;;;;11.77;2.37;;;8.50;95.70;;;;;;5045065;28;20052;-77
2020/12/01 09:34:49;;;;;;;10.37;1.80;;;8.50;95.70;;;;;;5032439;28;20614;-72
2020/12/01 09:37:17;;;;;;;11.30;1.40;;;8.50;95.70;;;;;;5039740;28;20040;-77
2020/12/01 09:39:44;;;;;;;8.37;1.00;;;8.50;95.70;;;;;;5021512;28;20517;-79
2020/12/01 09:42:18;;;;;;;6.27;0.90;;;8.50;95.70;;;;;;5046248;28;20508;-79
2020/12/01 09:45:15;;;;;;;7.10;1.73;;;8.50;95.70;;;;;;5030440;28;20428;-78
2020/12/01 09:47:50;;;;;;;12.50;1.47;;;8.60;95.70;;;;;;5042610;28;20041;-78
2020/12/01 09:50:22;;;;;;;9.63;1.33;;;8.60;95.70;;;;;;5040165;28;20037;-78
2020/12/01 09:55:46;;;;;;;8.60;1.10;;;8.60;95.70;;;;;;5054379;28;20396;-78
2020/12/01 10:09:25;;;;;;;14.73;1.50;;;8.70;95.60;;;;;;5048708;28;20392;-80
2020/12/01 10:35:25;;;;;;;14.20;1.93;;;8.70;95.40;;;;;;5014890;28;20095;-78
2020/12/01 10:37:57;;;;;;;14.70;1.83;;;8.70;95.40;;;;;;5011753;28;20064;-77
2020/12/01 10:40:25;;;;;;;12.70;2.38;;;8.80;95.40;;;;;;5052913;28;20139;-78
2020/12/01 10:42:53;;;;;;;12.33;1.30;;;8.80;95.40;;;;;;5048493;28;21497;-79
2020/12/01 10:45:21;;;;;;;9.43;1.83;;;8.80;95.40;;;;;;5035818;28;20435;-80
2020/12/01 10:47:48;;;;;;;9.93;0.90;;;8.80;95.40;;;;;;5054287;28;20477;-80
2020/12/01 10:50:17;;;;;;;13.87;1.93;;;8.80;95.30;;;;;;5030712;28;20087;-80
2020/12/01 10:52:43;;;;;;;12.97;2.77;;;8.90;95.40;;;;;;5037122;28;20384;-73
2020/12/01 10:55:14;;;;;;;9.30;1.10;;;8.90;95.40;;;;;;5025060;28;20079;-80
2020/12/01 10:57:40;;;;;;;9.10;1.20;;;8.90;95.30;;;;;;5053894;28;20404;-79
2020/12/01 11:00:08;;;;;;;10.67;1.83;;;8.90;95.30;;;;;;5032599;28;20144;-79
2020/12/01 11:02:35;;;;;;;11.57;1.87;;;8.90;95.30;;;;;;5039040;28;20048;-73
2020/12/01 11:05:06;;;;;;;12.10;1.53;;;8.90;95.30;;;;;;5038869;28;20041;-80
2020/12/01 11:07:33;;;;;;;10.27;1.50;;;8.90;95.20;;;;;;5011017;28;20053;-83
2020/12/01 11:10:00;;;;;;;12.03;1.63;;;9.00;95.30;;;;;;5014065;28;20497;-79
2020/12/01 11:12:26;;;;;;;21.40;2.00;;;9.00;95.20;;;;;;5039192;28;20034;-79
2020/12/01 11:14:53;;;;;;;12.97;2.30;;;9.00;95.10;;;;;;5017953;28;20401;-78
2020/12/01 11:17:19;;;;;;;13.20;1.93;;;9.00;95.10;;;;;;5030848;28;20045;-78
2020/12/01 11:19:46;;;;;;;16.97;1.60;;;9.00;95.00;;;;;;5034243;28;20041;-77
2020/12/01 11:22:13;;;;;;;13.07;2.10;;;9.00;94.90;;;;;;5040311;28;20044;-78
2020/12/01 11:24:41;;;;;;;8.80;1.00;;;9.00;94.90;;;;;;5045458;28;20052;-78
2020/12/01 11:27:08;;;;;;;12.77;1.67;;;9.10;94.90;;;;;;5014682;28;20045;-75
2020/12/01 11:29:36;;;;;;;11.63;1.40;;;9.10;94.90;;;;;;5002351;28;20080;-77
2020/12/01 11:32:04;;;;;;;9.17;1.40;;;9.10;94.90;;;;;;5029581;28;20402;-76
2020/12/01 11:34:31;;;;;;;17.43;1.70;;;9.10;94.90;;;;;;5041888;28;20072;-74
2020/12/01 11:36:57;;;;;;;12.87;2.00;;;9.10;94.80;;;;;;5042399;28;20069;-75
2020/12/01 11:39:24;;;;;;;11.10;1.50;;;9.10;94.70;;;;;;5001426;28;20091;-76
2020/12/01 11:41:51;;;;;;;12.93;1.77;;;9.20;94.70;;;;;;5023067;28;20060;-76
2020/12/01 11:44:18;;;;;;;10.57;1.50;;;9.10;94.70;;;;;;5032512;28;20045;-76
2020/12/01 11:46:44;;;;;;;10.83;1.10;;;9.20;94.70;;;;;;5007735;28;20076;-76
2020/12/01 11:49:11;;;;;;;9.23;1.10;;;9.20;94.70;;;;;;5031562;28;20068;-77
2020/12/01 11:51:39;;;;;;;7.57;1.37;;;9.20;94.60;;;;;;5005332;28;20092;-74
2020/12/01 11:54:08;;;;;;;12.03;1.53;;;9.20;94.60;;;;;;5031447;28;20041;-74
2020/12/01 11:56:35;;;;;;;7.83;1.17;;;9.30;94.60;;;;;;5028686;28;20041;-74
2020/12/01 11:59:03;;;;;;;7.57;1.20;;;9.30;94.50;;;;;;5016473;28;20041;-77
2020/12/01 12:01:30;;;;;;;11.50;1.67;;;9.30;94.50;;;;;;5021511;28;20449;-76
2020/12/01 12:03:56;;;;;;;11.87;1.40;;;9.30;94.50;;;;;;5026980;28;20143;-75
2020/12/01 12:06:23;;;;;;;6.97;0.70;;;9.30;94.40;;;;;;5035154;28;20037;-76
2020/12/01 12:08:49;;;;;;;11.23;1.30;;;9.30;94.40;;;;;;5024385;28;20409;-77
2020/12/01 12:11:16;;;;;;;9.53;1.37;;;9.30;94.50;;;;;;5027803;28;20536;-74
2020/12/01 12:13:46;;;;;;;8.80;1.27;;;9.30;94.50;;;;;;5041649;28;20037;-74
2020/12/01 12:16:20;;;;;;;8.17;1.33;;;9.40;94.50;;;;;;5008541;28;20057;-74
2020/12/01 12:18:47;;;;;;;10.83;1.20;;;9.40;94.40;;;;;;5039436;28;20049;-74
2020/12/01 12:21:14;;;;;;;5.37;0.80;;;9.50;94.30;;;;;;5041754;28;20494;-75
2020/12/01 12:23:41;;;;;;;8.90;1.20;;;9.50;94.30;;;;;;5040630;28;20037;-84
2020/12/01 12:26:08;;;;;;;7.13;0.93;;;9.50;94.30;;;;;;5044483;28;20171;-76
2020/12/01 12:28:37;;;;;;;8.70;0.80;;;9.50;94.30;;;;;;5037134;28;20052;-75
2020/12/01 12:31:05;;;;;;;11.77;1.87;;;9.50;94.30;;;;;;5051202;28;20056;-76
2020/12/01 12:33:34;;;;;;;10.47;1.57;;;9.50;94.00;;;;;;5046455;28;20041;-78
2020/12/01 12:36:00;;;;;;;10.90;2.00;;;9.40;93.90;;;;;;5052170;28;20056;-73
2020/12/01 12:38:28;;;;;;;14.70;2.17;;;9.40;94.00;;;;;;5010486;28;20077;-73
2020/12/01 12:40:55;;;;;;;14.50;2.33;;;9.50;94.00;;;;;;5044474;28;20049;-73
2020/12/01 12:43:25;;;;;;;11.17;1.77;;;9.50;94.00;;;;;;5050455;28;20045;-75
2020/12/01 12:45:52;;;;;;;9.63;0.93;;;9.50;94.00;;;;;;5034187;28;20405;-75
2020/12/01 12:48:22;;;;;;;6.23;1.27;;;9.50;94.00;;;;;;5021443;28;20061;-76
2020/12/01 12:50:48;;;;;;;8.57;1.03;;;9.50;94.00;;;;;;5028226;28;20033;-75
2020/12/01 12:53:15;;;;;;;12.33;1.17;;;9.60;93.90;;;;;;5055667;28;20041;-76
2020/12/01 12:55:41;;;;;;;10.93;1.53;;;9.60;93.70;;;;;;5021631;28;20041;-75
2020/12/01 12:58:08;;;;;;;8.63;0.93;;;9.60;93.70;;;;;;5055774;28;20102;-75
2020/12/01 13:00:35;;;;;;;6.73;1.10;;;9.70;93.70;;;;;;5049576;28;20040;-73
2020/12/01 13:03:02;;;;;;;12.53;1.80;;;9.70;93.60;;;;;;5051414;28;20492;-73
2020/12/01 13:05:29;;;;;;;12.30;1.10;;;9.70;93.60;;;;;;5054808;28;20428;-72
2020/12/01 13:07:57;;;;;;;8.60;1.07;;;9.60;93.60;;;;;;5040830;28;20122;-72
2020/12/01 13:10:24;;;;;;;8.97;0.73;;;9.60;93.60;;;;;;5037813;28;20455;-71
2020/12/01 13:12:51;;;;;;;6.77;0.90;;;9.60;93.60;;;;;;5036698;28;20049;-70
2020/12/01 13:15:23;;;;;;;10.50;1.87;;;9.60;93.70;;;;;;5042666;28;20427;-71
2020/12/01 13:17:50;;;;;;;12.82;1.20;;;9.60;93.60;;;;;;5038837;28;21431;-71
2020/12/01 13:20:23;;;;;;;11.33;1.00;;;9.60;93.50;;;;;;5041829;28;20065;-71
2020/12/01 13:22:50;;;;;;;6.23;0.87;;;9.60;93.40;;;;;;5039761;28;20045;-72
2020/12/01 13:25:16;;;;;;;8.60;2.10;;;9.60;93.40;;;;;;5004872;28;20075;-71
2020/12/01 13:27:43;;;;;;;7.90;1.33;;;9.60;93.30;;;;;;5053457;28;20051;-72
2020/12/01 13:30:12;;;;;;;14.50;1.60;;;9.60;93.10;;;;;;5036132;28;20037;-72
2020/12/01 13:32:38;;;;;;;7.97;1.07;;;9.60;93.10;;;;;;5042213;28;20089;-72
2020/12/01 13:35:06;;;;;;;11.23;1.57;;;9.60;93.20;;;;;;5046559;28;20072;-73
2020/12/01 13:37:34;;;;;;;11.67;1.20;;;9.60;93.00;;;;;;5027296;28;20069;-73
2020/12/01 13:40:02;;;;;;;13.63;1.37;;;9.70;93.10;;;;;;5033514;28;20041;-73
2020/12/01 13:42:28;;;;;;;6.80;1.00;;;9.70;93.00;;;;;;5028349;28;20123;-72
2020/12/01 13:44:55;;;;;;;7.67;1.27;;;9.80;93.00;;;;;;5046434;28;20069;-72
2020/12/01 13:47:21;;;;;;;4.07;0.70;;;9.90;93.00;;;;;;5041399;28;20037;-73
2020/12/01 13:49:48;;;;;;;8.03;1.43;;;9.90;93.00;;;;;;5052957;28;20048;-73
2020/12/01 13:52:15;;;;;;;7.23;0.90;;;9.90;92.90;;;;;;5031424;28;20053;-72
2020/12/01 13:54:41;;;;;;;11.27;1.47;;;9.90;92.80;;;;;;5043203;28;20037;-73
2020/12/01 13:57:08;;;;;;;8.33;1.03;;;9.90;92.70;;;;;;5003126;28;20033;-72
2020/12/01 13:59:35;;;;;;;7.43;1.30;;;9.80;92.80;;;;;;5030373;28;20036;-73
2020/12/01 14:02:02;;;;;;;4.27;0.43;;;9.80;92.90;;;;;;5026917;28;20469;-72
2020/12/01 14:04:30;;;;;;;6.30;0.77;;;9.80;92.90;;;;;;5041771;28;20047;-73